sensor_id;sensor_type;location;lat;lon;timestamp;P1;durP1;ratioP1;P2;durP2;ratioP2
6412;SDS011;3239;48.714;9.472;2023-04-06T00:00:43;16.93;;;8.87;;
6412;SDS011;3239;48.714;9.472;2023-04-06T00:03:09;13.67;;;8.33;;
6412;SDS011;3239;48.714;9.472;2023-04-06T00:05:35;11.03;;;8.00;;
6412;SDS011;3239;48.714;9.472;2023-04-06T00:08:00;10.50;;;7.23;;
6412;SDS011;3239;48.714;9.472;2023-04-06T00:10:26;10.87;;;6.57;;
6412;SDS011;3239;48.714;9.472;2023-04-06T00:12:52;7.83;;;6.53;;
6412;SDS011;3239;48.714;9.472;2023-04-06T00:15:19;10.20;;;6.97;;
6412;SDS011;3239;48.714;9.472;2023-04-06T00:17:45;6.70;;;5.80;;
6412;SDS011;3239;48.714;9.472;2023-04-06T00:20:11;8.07;;;6.10;;
6412;SDS011;3239;48.714;9.472;2023-04-06T00:25:46;13.03;;;7.93;;
6412;SDS011;3239;48.714;9.472;2023-04-06T00:28:12;9.80;;;6.90;;
6412;SDS011;3239;48.714;9.472;2023-04-06T00:30:39;8.10;;;6.23;;
6412;SDS011;3239;48.714;9.472;2023-04-06T00:33:06;7.07;;;5.53;;
6412;SDS011;3239;48.714;9.472;2023-04-06T00:35:32;8.30;;;5.60;;
6412;SDS011;3239;48.714;9.472;2023-04-06T00:37:57;9.87;;;6.17;;
6412;SDS011;3239;48.714;9.472;2023-04-06T00:40:23;8.40;;;5.83;;
6412;SDS011;3239;48.714;9.472;2023-04-06T00:42:49;9.47;;;5.20;;
6412;SDS011;3239;48.714;9.472;2023-04-06T00:45:15;8.03;;;6.20;;
6412;SDS011;3239;48.714;9.472;2023-04-06T00:47:41;7.50;;;5.60;;
6412;SDS011;3239;48.714;9.472;2023-04-06T00:50:07;10.40;;;5.70;;
6412;SDS011;3239;48.714;9.472;2023-04-06T00:52:33;8.50;;;6.50;;
6412;SDS011;3239;48.714;9.472;2023-04-06T00:54:59;7.20;;;5.77;;
6412;SDS011;3239;48.714;9.472;2023-04-06T00:57:25;10.40;;;5.57;;
6412;SDS011;3239;48.714;9.472;2023-04-06T00:59:51;10.07;;;6.50;;
6412;SDS011;3239;48.714;9.472;2023-04-06T01:02:18;9.60;;;6.43;;
6412;SDS011;3239;48.714;9.472;2023-04-06T01:04:44;9.30;;;5.70;;
6412;SDS011;3239;48.714;9.472;2023-04-06T01:07:10;8.20;;;6.00;;
6412;SDS011;3239;48.714;9.472;2023-04-06T01:09:35;5.83;;;5.23;;
6412;SDS011;3239;48.714;9.472;2023-04-06T01:12:01;8.27;;;6.23;;
6412;SDS011;3239;48.714;9.472;2023-04-06T01:14:28;10.50;;;6.03;;
6412;SDS011;3239;48.714;9.472;2023-04-06T01:16:54;6.60;;;5.73;;
6412;SDS011;3239;48.714;9.472;2023-04-06T01:19:23;10.00;;;6.73;;
6412;SDS011;3239;48.714;9.472;2023-04-06T01:21:49;11.17;;;7.57;;
6412;SDS011;3239;48.714;9.472;2023-04-06T01:24:15;10.60;;;7.40;;
6412;SDS011;3239;48.714;9.472;2023-04-06T01:26:41;11.10;;;7.27;;
6412;SDS011;3239;48.714;9.472;2023-04-06T01:29:07;9.60;;;7.13;;
6412;SDS011;3239;48.714;9.472;2023-04-06T01:31:33;10.00;;;6.30;;
6412;SDS011;3239;48.714;9.472;2023-04-06T01:33:59;9.90;;;6.93;;
6412;SDS011;3239;48.714;9.472;2023-04-06T01:36:25;7.83;;;6.10;;
6412;SDS011;3239;48.714;9.472;2023-04-06T01:38:51;10.20;;;7.03;;
6412;SDS011;3239;48.714;9.472;2023-04-06T01:41:17;7.53;;;6.60;;
6412;SDS011;3239;48.714;9.472;2023-04-06T01:43:43;7.77;;;6.10;;
6412;SDS011;3239;48.714;9.472;2023-04-06T01:46:10;11.60;;;7.50;;
6412;SDS011;3239;48.714;9.472;2023-04-06T01:48:36;12.87;;;8.03;;
6412;SDS011;3239;48.714;9.472;2023-04-06T01:51:02;8.53;;;6.53;;
6412;SDS011;3239;48.714;9.472;2023-04-06T01:53:27;9.50;;;6.30;;
6412;SDS011;3239;48.714;9.472;2023-04-06T01:55:53;6.80;;;6.10;;
6412;SDS011;3239;48.714;9.472;2023-04-06T01:58:19;7.67;;;6.47;;
6412;SDS011;3239;48.714;9.472;2023-04-06T02:00:45;7.30;;;6.57;;
6412;SDS011;3239;48.714;9.472;2023-04-06T02:03:11;9.40;;;6.70;;
6412;SDS011;3239;48.714;9.472;2023-04-06T02:05:36;9.23;;;6.90;;
6412;SDS011;3239;48.714;9.472;2023-04-06T02:08:05;7.43;;;6.13;;
6412;SDS011;3239;48.714;9.472;2023-04-06T02:10:31;8.83;;;6.63;;
6412;SDS011;3239;48.714;9.472;2023-04-06T02:12:57;10.03;;;7.23;;
6412;SDS011;3239;48.714;9.472;2023-04-06T02:15:23;10.87;;;7.40;;
6412;SDS011;3239;48.714;9.472;2023-04-06T02:17:50;10.70;;;8.00;;
6412;SDS011;3239;48.714;9.472;2023-04-06T02:20:16;11.50;;;7.70;;
6412;SDS011;3239;48.714;9.472;2023-04-06T02:22:42;10.40;;;7.97;;
6412;SDS011;3239;48.714;9.472;2023-04-06T02:25:08;9.77;;;7.27;;
6412;SDS011;3239;48.714;9.472;2023-04-06T02:27:34;12.40;;;7.10;;
6412;SDS011;3239;48.714;9.472;2023-04-06T02:30:01;9.50;;;7.37;;
6412;SDS011;3239;48.714;9.472;2023-04-06T02:32:28;11.20;;;8.17;;
6412;SDS011;3239;48.714;9.472;2023-04-06T02:34:54;14.17;;;7.97;;
6412;SDS011;3239;48.714;9.472;2023-04-06T02:37:19;14.80;;;9.30;;
6412;SDS011;3239;48.714;9.472;2023-04-06T02:39:45;10.80;;;7.43;;
6412;SDS011;3239;48.714;9.472;2023-04-06T02:42:11;9.83;;;6.83;;
6412;SDS011;3239;48.714;9.472;2023-04-06T02:44:37;9.10;;;6.80;;
6412;SDS011;3239;48.714;9.472;2023-04-06T02:47:03;7.93;;;6.60;;
6412;SDS011;3239;48.714;9.472;2023-04-06T02:49:29;8.63;;;7.03;;
6412;SDS011;3239;48.714;9.472;2023-04-06T02:51:55;11.10;;;7.60;;
6412;SDS011;3239;48.714;9.472;2023-04-06T02:54:21;11.90;;;7.30;;
6412;SDS011;3239;48.714;9.472;2023-04-06T02:56:46;13.20;;;7.80;;
6412;SDS011;3239;48.714;9.472;2023-04-06T02:59:12;10.70;;;7.87;;
6412;SDS011;3239;48.714;9.472;2023-04-06T03:01:38;10.97;;;6.97;;
6412;SDS011;3239;48.714;9.472;2023-04-06T03:04:04;8.07;;;6.70;;
6412;SDS011;3239;48.714;9.472;2023-04-06T03:06:29;15.10;;;7.30;;
6412;SDS011;3239;48.714;9.472;2023-04-06T03:08:55;10.37;;;7.80;;
6412;SDS011;3239;48.714;9.472;2023-04-06T03:11:21;12.97;;;8.00;;
6412;SDS011;3239;48.714;9.472;2023-04-06T03:13:47;14.87;;;8.13;;
6412;SDS011;3239;48.714;9.472;2023-04-06T03:16:12;8.50;;;6.60;;
6412;SDS011;3239;48.714;9.472;2023-04-06T03:18:38;10.40;;;7.23;;
6412;SDS011;3239;48.714;9.472;2023-04-06T03:21:04;10.50;;;7.17;;
6412;SDS011;3239;48.714;9.472;2023-04-06T03:23:30;12.80;;;8.20;;
6412;SDS011;3239;48.714;9.472;2023-04-06T03:25:55;8.30;;;6.83;;
6412;SDS011;3239;48.714;9.472;2023-04-06T03:28:21;9.17;;;6.83;;
6412;SDS011;3239;48.714;9.472;2023-04-06T03:30:47;7.63;;;6.60;;
6412;SDS011;3239;48.714;9.472;2023-04-06T03:33:14;8.43;;;6.83;;
6412;SDS011;3239;48.714;9.472;2023-04-06T03:35:40;11.37;;;7.83;;
6412;SDS011;3239;48.714;9.472;2023-04-06T03:38:05;10.63;;;7.00;;
6412;SDS011;3239;48.714;9.472;2023-04-06T03:40:31;11.33;;;7.37;;
6412;SDS011;3239;48.714;9.472;2023-04-06T03:42:57;9.97;;;7.80;;
6412;SDS011;3239;48.714;9.472;2023-04-06T03:45:23;9.80;;;7.77;;
6412;SDS011;3239;48.714;9.472;2023-04-06T03:47:49;10.20;;;7.30;;
6412;SDS011;3239;48.714;9.472;2023-04-06T03:50:15;8.87;;;7.20;;
6412;SDS011;3239;48.714;9.472;2023-04-06T03:52:40;7.80;;;6.50;;
6412;SDS011;3239;48.714;9.472;2023-04-06T03:55:06;10.50;;;7.53;;
6412;SDS011;3239;48.714;9.472;2023-04-06T03:57:33;12.53;;;7.20;;
6412;SDS011;3239;48.714;9.472;2023-04-06T03:59:59;11.63;;;6.60;;
6412;SDS011;3239;48.714;9.472;2023-04-06T04:02:25;11.10;;;7.27;;
6412;SDS011;3239;48.714;9.472;2023-04-06T04:04:51;10.83;;;6.70;;
6412;SDS011;3239;48.714;9.472;2023-04-06T04:07:17;9.60;;;7.20;;
6412;SDS011;3239;48.714;9.472;2023-04-06T04:09:42;10.60;;;7.10;;
6412;SDS011;3239;48.714;9.472;2023-04-06T04:12:08;9.53;;;6.60;;
6412;SDS011;3239;48.714;9.472;2023-04-06T04:14:34;11.20;;;7.37;;
6412;SDS011;3239;48.714;9.472;2023-04-06T04:17:00;7.90;;;6.33;;
6412;SDS011;3239;48.714;9.472;2023-04-06T04:19:25;10.30;;;7.40;;
6412;SDS011;3239;48.714;9.472;2023-04-06T04:21:51;9.67;;;6.83;;
6412;SDS011;3239;48.714;9.472;2023-04-06T04:24:17;7.63;;;6.80;;
6412;SDS011;3239;48.714;9.472;2023-04-06T04:26:43;8.83;;;6.73;;
6412;SDS011;3239;48.714;9.472;2023-04-06T04:29:09;8.97;;;7.37;;
6412;SDS011;3239;48.714;9.472;2023-04-06T04:31:35;11.60;;;7.83;;
6412;SDS011;3239;48.714;9.472;2023-04-06T04:34:00;10.80;;;7.00;;
6412;SDS011;3239;48.714;9.472;2023-04-06T04:36:26;11.47;;;7.70;;
6412;SDS011;3239;48.714;9.472;2023-04-06T04:38:53;10.23;;;8.10;;
6412;SDS011;3239;48.714;9.472;2023-04-06T04:41:19;9.93;;;7.67;;
6412;SDS011;3239;48.714;9.472;2023-04-06T04:43:45;12.80;;;8.00;;
6412;SDS011;3239;48.714;9.472;2023-04-06T04:46:11;8.90;;;7.60;;
6412;SDS011;3239;48.714;9.472;2023-04-06T04:48:37;13.93;;;8.27;;
6412;SDS011;3239;48.714;9.472;2023-04-06T04:51:03;8.13;;;6.63;;
6412;SDS011;3239;48.714;9.472;2023-04-06T04:53:30;8.53;;;6.90;;
6412;SDS011;3239;48.714;9.472;2023-04-06T04:55:56;16.20;;;6.77;;
6412;SDS011;3239;48.714;9.472;2023-04-06T04:58:22;9.77;;;7.03;;
6412;SDS011;3239;48.714;9.472;2023-04-06T05:00:47;10.37;;;7.30;;
6412;SDS011;3239;48.714;9.472;2023-04-06T05:03:23;9.90;;;6.90;;
6412;SDS011;3239;48.714;9.472;2023-04-06T05:05:51;8.97;;;7.77;;
6412;SDS011;3239;48.714;9.472;2023-04-06T05:08:17;11.23;;;8.20;;
6412;SDS011;3239;48.714;9.472;2023-04-06T05:10:43;7.33;;;6.60;;
6412;SDS011;3239;48.714;9.472;2023-04-06T05:13:10;9.30;;;7.37;;
6412;SDS011;3239;48.714;9.472;2023-04-06T05:15:36;9.50;;;7.20;;
6412;SDS011;3239;48.714;9.472;2023-04-06T05:18:05;10.37;;;7.20;;
6412;SDS011;3239;48.714;9.472;2023-04-06T05:20:32;10.23;;;7.60;;
6412;SDS011;3239;48.714;9.472;2023-04-06T05:22:59;10.00;;;7.53;;
6412;SDS011;3239;48.714;9.472;2023-04-06T05:25:25;11.73;;;7.23;;
6412;SDS011;3239;48.714;9.472;2023-04-06T05:27:51;15.37;;;8.80;;
6412;SDS011;3239;48.714;9.472;2023-04-06T05:30:17;12.43;;;8.00;;
6412;SDS011;3239;48.714;9.472;2023-04-06T05:32:43;9.30;;;7.33;;
6412;SDS011;3239;48.714;9.472;2023-04-06T05:35:09;11.23;;;7.40;;
6412;SDS011;3239;48.714;9.472;2023-04-06T05:37:36;11.70;;;7.73;;
6412;SDS011;3239;48.714;9.472;2023-04-06T05:40:02;9.60;;;7.40;;
6412;SDS011;3239;48.714;9.472;2023-04-06T05:42:38;9.73;;;8.00;;
6412;SDS011;3239;48.714;9.472;2023-04-06T05:45:06;13.33;;;8.73;;
6412;SDS011;3239;48.714;9.472;2023-04-06T05:47:33;14.77;;;10.20;;
6412;SDS011;3239;48.714;9.472;2023-04-06T05:49:59;21.77;;;11.60;;
6412;SDS011;3239;48.714;9.472;2023-04-06T05:52:25;14.83;;;9.80;;
6412;SDS011;3239;48.714;9.472;2023-04-06T05:54:51;14.43;;;9.10;;
6412;SDS011;3239;48.714;9.472;2023-04-06T05:57:17;18.73;;;8.63;;
6412;SDS011;3239;48.714;9.472;2023-04-06T05:59:43;10.33;;;8.03;;
6412;SDS011;3239;48.714;9.472;2023-04-06T06:02:09;21.60;;;9.47;;
6412;SDS011;3239;48.714;9.472;2023-04-06T06:04:35;11.80;;;8.87;;
6412;SDS011;3239;48.714;9.472;2023-04-06T06:07:01;14.03;;;7.87;;
6412;SDS011;3239;48.714;9.472;2023-04-06T06:09:27;11.07;;;8.40;;
6412;SDS011;3239;48.714;9.472;2023-04-06T06:11:53;12.73;;;7.60;;
6412;SDS011;3239;48.714;9.472;2023-04-06T06:14:18;10.00;;;6.97;;
6412;SDS011;3239;48.714;9.472;2023-04-06T06:16:45;8.97;;;7.20;;
6412;SDS011;3239;48.714;9.472;2023-04-06T06:19:10;9.43;;;7.00;;
6412;SDS011;3239;48.714;9.472;2023-04-06T06:21:36;8.00;;;6.43;;
6412;SDS011;3239;48.714;9.472;2023-04-06T06:24:02;8.07;;;6.40;;
6412;SDS011;3239;48.714;9.472;2023-04-06T06:26:28;8.17;;;6.63;;
6412;SDS011;3239;48.714;9.472;2023-04-06T06:28:54;9.40;;;6.30;;
6412;SDS011;3239;48.714;9.472;2023-04-06T06:31:20;8.97;;;6.07;;
6412;SDS011;3239;48.714;9.472;2023-04-06T06:33:47;8.17;;;6.03;;
6412;SDS011;3239;48.714;9.472;2023-04-06T06:36:17;6.93;;;5.80;;
6412;SDS011;3239;48.714;9.472;2023-04-06T06:38:43;10.57;;;6.93;;
6412;SDS011;3239;48.714;9.472;2023-04-06T06:41:10;9.03;;;7.80;;
6412;SDS011;3239;48.714;9.472;2023-04-06T06:43:36;11.23;;;7.60;;
6412;SDS011;3239;48.714;9.472;2023-04-06T06:46:02;11.67;;;7.03;;
6412;SDS011;3239;48.714;9.472;2023-04-06T06:48:28;15.13;;;9.43;;
6412;SDS011;3239;48.714;9.472;2023-04-06T06:50:54;13.63;;;9.13;;
6412;SDS011;3239;48.714;9.472;2023-04-06T06:53:20;12.93;;;9.00;;
6412;SDS011;3239;48.714;9.472;2023-04-06T06:55:46;10.07;;;8.40;;
6412;SDS011;3239;48.714;9.472;2023-04-06T06:58:13;11.30;;;9.00;;
6412;SDS011;3239;48.714;9.472;2023-04-06T07:00:40;12.33;;;8.63;;
6412;SDS011;3239;48.714;9.472;2023-04-06T07:03:06;15.50;;;9.53;;
6412;SDS011;3239;48.714;9.472;2023-04-06T07:05:31;11.57;;;8.50;;
6412;SDS011;3239;48.714;9.472;2023-04-06T07:07:58;13.73;;;8.83;;
6412;SDS011;3239;48.714;9.472;2023-04-06T07:10:23;9.93;;;7.87;;
6412;SDS011;3239;48.714;9.472;2023-04-06T07:12:49;10.73;;;8.13;;
6412;SDS011;3239;48.714;9.472;2023-04-06T07:15:16;12.40;;;8.60;;
6412;SDS011;3239;48.714;9.472;2023-04-06T07:17:42;9.73;;;7.87;;
6412;SDS011;3239;48.714;9.472;2023-04-06T07:20:10;15.20;;;8.30;;
6412;SDS011;3239;48.714;9.472;2023-04-06T07:22:37;11.13;;;8.13;;
6412;SDS011;3239;48.714;9.472;2023-04-06T07:25:03;9.57;;;7.57;;
6412;SDS011;3239;48.714;9.472;2023-04-06T07:27:30;10.73;;;7.40;;
6412;SDS011;3239;48.714;9.472;2023-04-06T07:29:56;10.47;;;6.93;;
6412;SDS011;3239;48.714;9.472;2023-04-06T07:32:22;9.10;;;6.40;;
6412;SDS011;3239;48.714;9.472;2023-04-06T07:34:48;13.00;;;7.17;;
6412;SDS011;3239;48.714;9.472;2023-04-06T07:37:13;9.03;;;7.23;;
6412;SDS011;3239;48.714;9.472;2023-04-06T07:39:39;12.13;;;7.77;;
6412;SDS011;3239;48.714;9.472;2023-04-06T07:42:05;8.20;;;7.40;;
6412;SDS011;3239;48.714;9.472;2023-04-06T07:44:31;8.47;;;7.10;;
6412;SDS011;3239;48.714;9.472;2023-04-06T07:46:57;10.80;;;7.77;;
6412;SDS011;3239;48.714;9.472;2023-04-06T07:49:22;9.17;;;7.70;;
6412;SDS011;3239;48.714;9.472;2023-04-06T07:51:48;12.03;;;7.50;;
6412;SDS011;3239;48.714;9.472;2023-04-06T07:54:14;12.40;;;7.53;;
6412;SDS011;3239;48.714;9.472;2023-04-06T07:56:40;10.93;;;7.50;;
6412;SDS011;3239;48.714;9.472;2023-04-06T07:59:06;9.90;;;7.73;;
6412;SDS011;3239;48.714;9.472;2023-04-06T08:01:31;7.70;;;6.90;;
6412;SDS011;3239;48.714;9.472;2023-04-06T08:03:57;11.23;;;7.07;;
6412;SDS011;3239;48.714;9.472;2023-04-06T08:06:23;9.83;;;8.03;;
6412;SDS011;3239;48.714;9.472;2023-04-06T08:08:50;11.27;;;7.87;;
6412;SDS011;3239;48.714;9.472;2023-04-06T08:11:15;11.70;;;7.30;;
6412;SDS011;3239;48.714;9.472;2023-04-06T08:13:41;11.93;;;8.13;;
6412;SDS011;3239;48.714;9.472;2023-04-06T08:16:07;8.33;;;7.53;;
6412;SDS011;3239;48.714;9.472;2023-04-06T08:18:33;9.60;;;7.30;;
6412;SDS011;3239;48.714;9.472;2023-04-06T08:20:59;8.77;;;7.37;;
6412;SDS011;3239;48.714;9.472;2023-04-06T08:23:24;11.43;;;7.20;;
6412;SDS011;3239;48.714;9.472;2023-04-06T08:25:50;8.13;;;7.23;;
6412;SDS011;3239;48.714;9.472;2023-04-06T08:28:19;9.40;;;7.43;;
6412;SDS011;3239;48.714;9.472;2023-04-06T08:30:46;13.83;;;7.87;;
6412;SDS011;3239;48.714;9.472;2023-04-06T08:33:12;13.30;;;8.37;;
6412;SDS011;3239;48.714;9.472;2023-04-06T08:35:38;13.20;;;8.57;;
6412;SDS011;3239;48.714;9.472;2023-04-06T08:38:04;12.17;;;7.70;;
6412;SDS011;3239;48.714;9.472;2023-04-06T08:40:35;10.53;;;8.03;;
6412;SDS011;3239;48.714;9.472;2023-04-06T08:43:06;9.23;;;7.67;;
6412;SDS011;3239;48.714;9.472;2023-04-06T08:45:38;12.10;;;8.17;;
6412;SDS011;3239;48.714;9.472;2023-04-06T08:48:05;11.17;;;8.30;;
6412;SDS011;3239;48.714;9.472;2023-04-06T08:50:32;12.47;;;8.77;;
6412;SDS011;3239;48.714;9.472;2023-04-06T08:52:59;9.33;;;8.33;;
6412;SDS011;3239;48.714;9.472;2023-04-06T08:55:26;14.43;;;8.30;;
6412;SDS011;3239;48.714;9.472;2023-04-06T08:57:52;9.40;;;8.47;;
6412;SDS011;3239;48.714;9.472;2023-04-06T09:00:20;9.93;;;8.87;;
6412;SDS011;3239;48.714;9.472;2023-04-06T09:02:46;12.40;;;8.10;;
6412;SDS011;3239;48.714;9.472;2023-04-06T09:05:13;13.17;;;8.10;;
6412;SDS011;3239;48.714;9.472;2023-04-06T09:07:40;13.20;;;8.60;;
6412;SDS011;3239;48.714;9.472;2023-04-06T09:10:06;15.67;;;8.33;;
6412;SDS011;3239;48.714;9.472;2023-04-06T09:12:33;10.70;;;8.60;;
6412;SDS011;3239;48.714;9.472;2023-04-06T09:14:59;10.20;;;8.90;;
6412;SDS011;3239;48.714;9.472;2023-04-06T09:17:27;8.77;;;7.30;;
6412;SDS011;3239;48.714;9.472;2023-04-06T09:20:02;10.87;;;8.20;;
6412;SDS011;3239;48.714;9.472;2023-04-06T09:22:35;12.60;;;9.23;;
6412;SDS011;3239;48.714;9.472;2023-04-06T09:25:03;11.90;;;8.40;;
6412;SDS011;3239;48.714;9.472;2023-04-06T09:27:30;12.60;;;8.80;;
6412;SDS011;3239;48.714;9.472;2023-04-06T09:30:07;10.97;;;8.90;;
6412;SDS011;3239;48.714;9.472;2023-04-06T09:35:15;11.40;;;8.57;;
6412;SDS011;3239;48.714;9.472;2023-04-06T09:37:42;10.73;;;9.40;;
6412;SDS011;3239;48.714;9.472;2023-04-06T09:40:08;10.00;;;7.70;;
6412;SDS011;3239;48.714;9.472;2023-04-06T09:42:35;9.53;;;8.53;;
6412;SDS011;3239;48.714;9.472;2023-04-06T09:45:02;11.00;;;9.00;;
6412;SDS011;3239;48.714;9.472;2023-04-06T09:47:28;11.50;;;8.67;;
6412;SDS011;3239;48.714;9.472;2023-04-06T09:49:58;13.53;;;8.50;;
6412;SDS011;3239;48.714;9.472;2023-04-06T09:55:10;9.10;;;7.53;;
6412;SDS011;3239;48.714;9.472;2023-04-06T10:00:17;10.40;;;8.13;;
6412;SDS011;3239;48.714;9.472;2023-04-06T10:05:57;7.20;;;6.03;;
6412;SDS011;3239;48.714;9.472;2023-04-06T10:08:29;8.40;;;6.40;;
6412;SDS011;3239;48.714;9.472;2023-04-06T10:10:58;7.47;;;6.27;;
6412;SDS011;3239;48.714;9.472;2023-04-06T10:13:25;6.23;;;5.60;;
6412;SDS011;3239;48.714;9.472;2023-04-06T10:15:52;6.60;;;5.50;;
6412;SDS011;3239;48.714;9.472;2023-04-06T10:18:19;6.70;;;5.90;;
6412;SDS011;3239;48.714;9.472;2023-04-06T10:23:37;5.87;;;5.27;;
6412;SDS011;3239;48.714;9.472;2023-04-06T10:26:11;5.83;;;5.17;;
6412;SDS011;3239;48.714;9.472;2023-04-06T10:28:40;6.10;;;5.50;;
6412;SDS011;3239;48.714;9.472;2023-04-06T10:31:08;8.40;;;6.87;;
6412;SDS011;3239;48.714;9.472;2023-04-06T10:33:34;6.20;;;5.60;;
6412;SDS011;3239;48.714;9.472;2023-04-06T10:36:10;7.33;;;6.53;;
6412;SDS011;3239;48.714;9.472;2023-04-06T10:38:38;7.70;;;6.30;;
6412;SDS011;3239;48.714;9.472;2023-04-06T10:41:06;7.87;;;6.87;;
6412;SDS011;3239;48.714;9.472;2023-04-06T10:43:34;6.63;;;6.03;;
6412;SDS011;3239;48.714;9.472;2023-04-06T10:46:06;8.60;;;6.40;;
6412;SDS011;3239;48.714;9.472;2023-04-06T10:48:38;8.57;;;6.43;;
6412;SDS011;3239;48.714;9.472;2023-04-06T10:51:15;8.37;;;6.27;;
6412;SDS011;3239;48.714;9.472;2023-04-06T10:53:43;7.43;;;5.60;;
6412;SDS011;3239;48.714;9.472;2023-04-06T10:56:15;6.77;;;5.93;;
6412;SDS011;3239;48.714;9.472;2023-04-06T11:01:12;6.37;;;5.60;;
6412;SDS011;3239;48.714;9.472;2023-04-06T11:03:46;8.00;;;6.03;;
6412;SDS011;3239;48.714;9.472;2023-04-06T11:06:27;6.93;;;5.70;;
6412;SDS011;3239;48.714;9.472;2023-04-06T11:08:56;7.57;;;6.00;;
6412;SDS011;3239;48.714;9.472;2023-04-06T11:11:23;7.03;;;6.00;;
6412;SDS011;3239;48.714;9.472;2023-04-06T11:16:25;6.83;;;5.80;;
6412;SDS011;3239;48.714;9.472;2023-04-06T11:19:03;8.20;;;6.60;;
6412;SDS011;3239;48.714;9.472;2023-04-06T11:26:48;7.13;;;5.57;;
6412;SDS011;3239;48.714;9.472;2023-04-06T11:29:19;8.00;;;5.73;;
6412;SDS011;3239;48.714;9.472;2023-04-06T11:31:52;7.70;;;5.67;;
6412;SDS011;3239;48.714;9.472;2023-04-06T11:34:29;6.33;;;5.10;;
6412;SDS011;3239;48.714;9.472;2023-04-06T11:37:01;5.60;;;5.10;;
6412;SDS011;3239;48.714;9.472;2023-04-06T11:39:30;6.00;;;5.17;;
6412;SDS011;3239;48.714;9.472;2023-04-06T11:41:58;6.23;;;5.20;;
6412;SDS011;3239;48.714;9.472;2023-04-06T11:47:05;7.80;;;5.20;;
6412;SDS011;3239;48.714;9.472;2023-04-06T11:49:39;5.30;;;4.80;;
6412;SDS011;3239;48.714;9.472;2023-04-06T11:54:44;6.73;;;3.50;;
6412;SDS011;3239;48.714;9.472;2023-04-06T11:57:11;5.57;;;3.67;;
6412;SDS011;3239;48.714;9.472;2023-04-06T11:59:37;8.83;;;5.33;;
6412;SDS011;3239;48.714;9.472;2023-04-06T12:02:03;5.30;;;4.43;;
6412;SDS011;3239;48.714;9.472;2023-04-06T12:04:29;5.20;;;4.20;;
6412;SDS011;3239;48.714;9.472;2023-04-06T12:06:56;4.80;;;4.30;;
6412;SDS011;3239;48.714;9.472;2023-04-06T12:09:22;6.73;;;4.23;;
6412;SDS011;3239;48.714;9.472;2023-04-06T12:11:48;4.70;;;3.30;;
6412;SDS011;3239;48.714;9.472;2023-04-06T12:14:14;8.47;;;4.50;;
6412;SDS011;3239;48.714;9.472;2023-04-06T12:16:41;5.17;;;3.77;;
6412;SDS011;3239;48.714;9.472;2023-04-06T12:19:07;5.07;;;3.97;;
6412;SDS011;3239;48.714;9.472;2023-04-06T12:21:33;5.17;;;4.13;;
6412;SDS011;3239;48.714;9.472;2023-04-06T12:24:02;4.30;;;3.60;;
6412;SDS011;3239;48.714;9.472;2023-04-06T12:26:29;4.57;;;4.03;;
6412;SDS011;3239;48.714;9.472;2023-04-06T12:28:56;3.70;;;3.27;;
6412;SDS011;3239;48.714;9.472;2023-04-06T12:31:22;5.37;;;3.90;;
6412;SDS011;3239;48.714;9.472;2023-04-06T12:33:50;2.70;;;2.50;;
6412;SDS011;3239;48.714;9.472;2023-04-06T12:36:17;3.80;;;3.40;;
6412;SDS011;3239;48.714;9.472;2023-04-06T12:38:49;6.07;;;4.17;;
6412;SDS011;3239;48.714;9.472;2023-04-06T12:41:16;4.80;;;4.10;;
6412;SDS011;3239;48.714;9.472;2023-04-06T12:43:43;6.93;;;4.60;;
6412;SDS011;3239;48.714;9.472;2023-04-06T12:46:10;8.23;;;4.63;;
6412;SDS011;3239;48.714;9.472;2023-04-06T12:48:36;4.23;;;3.50;;
6412;SDS011;3239;48.714;9.472;2023-04-06T12:51:04;5.03;;;4.53;;
6412;SDS011;3239;48.714;9.472;2023-04-06T12:53:31;4.40;;;3.50;;
6412;SDS011;3239;48.714;9.472;2023-04-06T12:56:00;4.50;;;3.80;;
6412;SDS011;3239;48.714;9.472;2023-04-06T12:58:27;5.97;;;4.50;;
6412;SDS011;3239;48.714;9.472;2023-04-06T13:00:54;5.03;;;4.53;;
6412;SDS011;3239;48.714;9.472;2023-04-06T13:03:22;6.53;;;5.30;;
6412;SDS011;3239;48.714;9.472;2023-04-06T13:05:49;5.43;;;4.20;;
6412;SDS011;3239;48.714;9.472;2023-04-06T13:08:16;4.80;;;4.10;;
6412;SDS011;3239;48.714;9.472;2023-04-06T13:10:47;5.90;;;4.33;;
6412;SDS011;3239;48.714;9.472;2023-04-06T13:13:14;4.73;;;4.30;;
6412;SDS011;3239;48.714;9.472;2023-04-06T13:15:40;8.70;;;4.73;;
6412;SDS011;3239;48.714;9.472;2023-04-06T13:18:07;6.40;;;4.87;;
6412;SDS011;3239;48.714;9.472;2023-04-06T13:20:33;5.30;;;4.80;;
6412;SDS011;3239;48.714;9.472;2023-04-06T13:23:00;7.73;;;4.90;;
6412;SDS011;3239;48.714;9.472;2023-04-06T13:25:25;5.03;;;4.30;;
6412;SDS011;3239;48.714;9.472;2023-04-06T13:27:53;6.63;;;4.23;;
6412;SDS011;3239;48.714;9.472;2023-04-06T13:30:19;4.93;;;4.40;;
6412;SDS011;3239;48.714;9.472;2023-04-06T13:32:45;6.37;;;4.40;;
6412;SDS011;3239;48.714;9.472;2023-04-06T13:35:11;7.57;;;4.60;;
6412;SDS011;3239;48.714;9.472;2023-04-06T13:37:38;5.83;;;5.27;;
6412;SDS011;3239;48.714;9.472;2023-04-06T13:40:04;5.90;;;4.80;;
6412;SDS011;3239;48.714;9.472;2023-04-06T13:42:31;7.37;;;4.90;;
6412;SDS011;3239;48.714;9.472;2023-04-06T13:44:57;8.03;;;5.63;;
6412;SDS011;3239;48.714;9.472;2023-04-06T13:47:24;6.17;;;4.60;;
6412;SDS011;3239;48.714;9.472;2023-04-06T13:49:50;5.63;;;5.03;;
6412;SDS011;3239;48.714;9.472;2023-04-06T13:52:20;5.37;;;4.40;;
6412;SDS011;3239;48.714;9.472;2023-04-06T13:54:45;6.93;;;4.50;;
6412;SDS011;3239;48.714;9.472;2023-04-06T13:57:12;5.80;;;4.27;;
6412;SDS011;3239;48.714;9.472;2023-04-06T13:59:38;5.63;;;4.80;;
6412;SDS011;3239;48.714;9.472;2023-04-06T14:02:05;5.07;;;3.80;;
6412;SDS011;3239;48.714;9.472;2023-04-06T14:04:33;5.47;;;4.20;;
6412;SDS011;3239;48.714;9.472;2023-04-06T14:06:59;6.13;;;4.10;;
6412;SDS011;3239;48.714;9.472;2023-04-06T14:09:27;5.43;;;4.73;;
6412;SDS011;3239;48.714;9.472;2023-04-06T14:11:53;7.03;;;4.47;;
6412;SDS011;3239;48.714;9.472;2023-04-06T14:14:20;5.37;;;4.87;;
6412;SDS011;3239;48.714;9.472;2023-04-06T14:16:46;6.27;;;4.83;;
6412;SDS011;3239;48.714;9.472;2023-04-06T14:19:13;4.67;;;4.10;;
6412;SDS011;3239;48.714;9.472;2023-04-06T14:21:42;6.00;;;3.50;;
6412;SDS011;3239;48.714;9.472;2023-04-06T14:24:09;4.87;;;4.07;;
6412;SDS011;3239;48.714;9.472;2023-04-06T14:26:36;8.87;;;4.30;;
6412;SDS011;3239;48.714;9.472;2023-04-06T14:29:02;5.40;;;4.30;;
6412;SDS011;3239;48.714;9.472;2023-04-06T14:31:31;6.83;;;4.50;;
6412;SDS011;3239;48.714;9.472;2023-04-06T14:33:57;4.73;;;4.27;;
6412;SDS011;3239;48.714;9.472;2023-04-06T14:36:26;6.53;;;3.90;;
6412;SDS011;3239;48.714;9.472;2023-04-06T14:38:54;4.90;;;4.00;;
6412;SDS011;3239;48.714;9.472;2023-04-06T14:41:22;7.13;;;4.00;;
6412;SDS011;3239;48.714;9.472;2023-04-06T14:43:49;4.37;;;3.37;;
6412;SDS011;3239;48.714;9.472;2023-04-06T14:46:17;4.17;;;3.47;;
6412;SDS011;3239;48.714;9.472;2023-04-06T14:48:43;4.23;;;3.67;;
6412;SDS011;3239;48.714;9.472;2023-04-06T14:51:10;6.20;;;3.50;;
6412;SDS011;3239;48.714;9.472;2023-04-06T14:53:36;4.93;;;3.20;;
6412;SDS011;3239;48.714;9.472;2023-04-06T14:56:02;4.13;;;3.23;;
6412;SDS011;3239;48.714;9.472;2023-04-06T14:58:28;5.77;;;3.37;;
6412;SDS011;3239;48.714;9.472;2023-04-06T15:00:55;3.37;;;3.00;;
6412;SDS011;3239;48.714;9.472;2023-04-06T15:03:23;5.20;;;3.53;;
6412;SDS011;3239;48.714;9.472;2023-04-06T15:05:53;6.70;;;3.70;;
6412;SDS011;3239;48.714;9.472;2023-04-06T15:08:19;3.87;;;3.40;;
6412;SDS011;3239;48.714;9.472;2023-04-06T15:10:47;5.53;;;3.70;;
6412;SDS011;3239;48.714;9.472;2023-04-06T15:13:13;4.20;;;3.47;;
6412;SDS011;3239;48.714;9.472;2023-04-06T15:15:43;3.40;;;2.93;;
6412;SDS011;3239;48.714;9.472;2023-04-06T15:18:09;4.70;;;3.73;;
6412;SDS011;3239;48.714;9.472;2023-04-06T15:20:36;4.83;;;4.10;;
6412;SDS011;3239;48.714;9.472;2023-04-06T15:23:02;6.07;;;3.90;;
6412;SDS011;3239;48.714;9.472;2023-04-06T15:25:29;4.37;;;3.20;;
6412;SDS011;3239;48.714;9.472;2023-04-06T15:27:55;5.13;;;3.63;;
6412;SDS011;3239;48.714;9.472;2023-04-06T15:30:22;6.77;;;3.70;;
6412;SDS011;3239;48.714;9.472;2023-04-06T15:32:58;4.70;;;4.10;;
6412;SDS011;3239;48.714;9.472;2023-04-06T15:35:25;5.97;;;4.00;;
6412;SDS011;3239;48.714;9.472;2023-04-06T15:37:55;3.97;;;3.47;;
6412;SDS011;3239;48.714;9.472;2023-04-06T15:40:22;5.10;;;4.07;;